Time;durP1;ratioP1;P1;durP2;ratioP2;P2;SDS_P1;SDS_P2;PMS_P1;PMS_P2;Temp;Humidity;BMP_temperature;BMP_pressure;BME280_temperature;BME280_humidity;BME280_pressure;Samples;Min_cycle;Max_cycle;Signal;HPM_P1;HPM_P2
2023/10/12 00:02:32;;;;;;;5.43;2.00;;;22.70;48.70;;;;;;2614320;52;21060;-65
2023/10/12 00:05:06;;;;;;;4.35;1.70;;;22.70;48.70;;;;;;2364196;53;20967;-64
2023/10/12 00:07:38;;;;;;;5.00;2.10;;;22.70;48.70;;;;;;2609273;52;20977;-65
2023/10/12 00:13:11;;;;;;;5.80;2.17;;;22.80;48.80;;;;;;2368264;53;20910;-68
2023/10/12 00:15:47;;;;;;;5.15;2.50;;;22.80;48.80;;;;;;2357626;53;20968;-67
2023/10/12 00:18:17;;;;;;;5.97;2.50;;;22.70;48.70;;;;;;2348559;53;21711;-63
2023/10/12 00:20:45;;;;;;;4.25;2.25;;;22.80;48.70;;;;;;2618895;52;21124;-68
2023/10/12 00:23:14;;;;;;;6.47;2.40;;;22.70;48.60;;;;;;2612995;52;21435;-65
2023/10/12 00:25:54;;;;;;;4.43;2.17;;;22.70;48.60;;;;;;2362369;53;20926;-66
2023/10/12 00:28:28;;;;;;;5.28;2.33;;;22.70;48.60;;;;;;2617967;52;20923;-66
2023/10/12 00:30:57;;;;;;;5.05;2.25;;;22.70;48.60;;;;;;2370021;53;20911;-65
2023/10/12 00:33:24;;;;;;;7.50;1.85;;;22.70;48.60;;;;;;2599182;52;21449;-65
2023/10/12 00:35:52;;;;;;;4.70;2.12;;;22.70;48.60;;;;;;2341454;53;20926;-65
2023/10/12 00:38:23;;;;;;;4.30;2.05;;;22.70;48.60;;;;;;2367929;53;21739;-64
2023/10/12 00:40:55;;;;;;;5.70;2.37;;;22.70;48.60;;;;;;2335224;53;20971;-65
2023/10/12 00:43:22;;;;;;;;;;;22.70;48.70;;;;;;2365874;53;20978;-68
2023/10/12 00:45:49;;;;;;;3.87;1.62;;;22.70;48.60;;;;;;2598078;52;20180;-65
2023/10/12 00:48:20;;;;;;;4.32;1.80;;;22.70;48.50;;;;;;2367176;53;21024;-65
2023/10/12 00:50:48;;;;;;;3.58;1.90;;;22.70;48.40;;;;;;2333614;54;21000;-65
2023/10/12 00:53:15;;;;;;;10.00;2.22;;;22.70;48.50;;;;;;2586537;53;21081;-64
2023/10/12 00:55:41;;;;;;;3.87;2.00;;;22.60;48.50;;;;;;2612373;52;20977;-66
2023/10/12 00:58:08;;;;;;;4.18;2.15;;;22.60;48.50;;;;;;2366695;53;21411;-67
2023/10/12 01:00:46;;;;;;;4.62;1.85;;;22.60;48.40;;;;;;2612572;52;21064;-68
2023/10/12 01:03:35;;;;;;;4.80;2.00;;;22.60;48.40;;;;;;2366015;53;21380;-65
2023/10/12 01:06:25;;;;;;;4.60;2.08;;;22.60;48.50;;;;;;2362803;53;21012;-65
2023/10/12 01:08:51;;;;;;;4.20;1.92;;;22.60;48.50;;;;;;2360799;53;20946;-64
2023/10/12 01:11:27;;;;;;;4.03;1.90;;;22.60;48.50;;;;;;2616685;52;21017;-64
2023/10/12 01:19:51;;;;;;;3.67;1.73;;;22.50;48.40;;;;;;2364227;53;20980;-64
2023/10/12 01:22:25;;;;;;;5.05;1.85;;;22.40;48.30;;;;;;2331926;53;20944;-65
2023/10/12 01:24:59;;;;;;;5.25;2.00;;;22.40;48.30;;;;;;2363365;53;20995;-68
2023/10/12 01:27:26;;;;;;;3.25;1.42;;;22.30;48.20;;;;;;2369018;53;21022;-64
2023/10/12 01:29:53;;;;;;;4.28;1.73;;;22.30;48.20;;;;;;2366913;53;20962;-64
2023/10/12 01:32:22;;;;;;;5.15;1.90;;;22.20;48.00;;;;;;2617979;52;21629;-65
2023/10/12 01:34:55;;;;;;;4.07;1.87;;;22.10;48.10;;;;;;2607736;52;21015;-65
2023/10/12 01:37:28;;;;;;;5.07;2.40;;;22.10;48.10;;;;;;2370380;53;20957;-64
2023/10/12 01:42:58;;;;;;;4.53;1.90;;;22.00;48.20;;;;;;2608890;52;20969;-69
2023/10/12 01:48:12;;;;;;;4.45;1.80;;;21.80;48.20;;;;;;2336415;53;20973;-64
2023/10/12 01:50:39;;;;;;;4.18;1.95;;;21.80;48.20;;;;;;2369393;53;20948;-65
2023/10/12 01:53:23;;;;;;;6.47;2.58;;;21.70;48.10;;;;;;2363103;53;20926;-64
2023/10/12 01:55:52;;;;;;;3.80;1.75;;;21.60;48.10;;;;;;2368631;53;20915;-66
2023/10/12 01:58:19;;;;;;;4.70;2.15;;;21.50;48.10;;;;;;2618267;52;21017;-64
2023/10/12 02:00:53;;;;;;;6.60;1.98;;;21.50;48.20;;;;;;2592136;52;20964;-64
2023/10/12 02:03:37;;;;;;;4.47;2.10;;;21.40;48.30;;;;;;2346474;53;20915;-65
2023/10/12 02:06:13;;;;;;;4.03;1.77;;;21.30;48.30;;;;;;2369165;53;20982;-64
2023/10/12 02:08:46;;;;;;;5.15;2.10;;;21.30;48.40;;;;;;2609485;52;20944;-66
2023/10/12 02:14:03;;;;;;;6.00;2.40;;;21.10;48.40;;;;;;2613673;52;20934;-67
2023/10/12 02:16:35;;;;;;;6.75;2.17;;;21.10;48.50;;;;;;2368754;53;21052;-64
2023/10/12 02:19:04;;;;;;;4.28;2.20;;;21.00;48.60;;;;;;2369725;53;21720;-66
2023/10/12 02:21:40;;;;;;;4.85;2.25;;;21.00;48.80;;;;;;2367249;53;21131;-64
2023/10/12 02:24:16;;;;;;;4.20;1.87;;;21.00;49.00;;;;;;2366064;53;21428;-65
2023/10/12 02:26:52;;;;;;;4.30;1.90;;;20.90;49.00;;;;;;2610965;52;20964;-66
2023/10/12 02:29:19;;;;;;;5.32;2.22;;;20.90;49.20;;;;;;2367491;53;20914;-64
2023/10/12 02:31:58;;;;;;;6.12;2.10;;;20.90;49.30;;;;;;2370538;53;20966;-65
2023/10/12 02:34:26;;;;;;;3.70;1.80;;;20.90;49.40;;;;;;2600881;52;21013;-65
2023/10/12 02:37:40;;;;;;;4.22;2.28;;;21.00;49.50;;;;;;2368000;53;21268;-66
2023/10/12 02:40:09;;;;;;;5.57;2.25;;;21.00;49.50;;;;;;2370393;53;21833;-65
2023/10/12 02:42:38;;;;;;;4.90;2.50;;;21.00;49.60;;;;;;2369539;53;20922;-65
2023/10/12 02:45:10;;;;;;;3.70;1.90;;;21.00;49.60;;;;;;2367272;53;20918;-65
2023/10/12 02:47:40;;;;;;;5.28;2.20;;;21.00;49.70;;;;;;2368543;53;21696;-68
2023/10/12 02:50:26;;;;;;;3.83;1.95;;;21.10;49.80;;;;;;2351964;53;21028;-66
2023/10/12 02:52:53;;;;;;;5.28;1.90;;;21.10;49.80;;;;;;2344187;53;20952;-64
2023/10/12 02:55:26;;;;;;;3.95;1.83;;;21.20;49.90;;;;;;2593155;52;21074;-67
2023/10/12 02:57:59;;;;;;;4.18;1.92;;;21.20;50.00;;;;;;2351998;53;21295;-65
2023/10/12 03:03:54;;;;;;;4.35;2.10;;;21.30;50.10;;;;;;2342320;53;21474;-65
2023/10/12 03:06:23;;;;;;;6.00;2.28;;;21.40;50.10;;;;;;2355950;53;20963;-65
2023/10/12 03:09:13;;;;;;;4.78;2.50;;;21.40;50.10;;;;;;2587538;52;21809;-65
2023/10/12 03:11:42;;;;;;;5.12;2.08;;;21.40;50.10;;;;;;2341839;54;21049;-68
2023/10/12 03:14:15;;;;;;;5.85;2.17;;;21.50;50.10;;;;;;2361221;53;21457;-63
2023/10/12 03:16:43;;;;;;;4.07;2.00;;;21.50;50.10;;;;;;2614189;52;21011;-66
2023/10/12 03:19:25;;;;;;;4.75;2.15;;;21.60;50.20;;;;;;2606572;52;21455;-66
2023/10/12 03:22:04;;;;;;;6.00;2.22;;;21.60;50.20;;;;;;2609159;52;21073;-67
2023/10/12 03:24:43;;;;;;;6.32;2.10;;;21.60;50.20;;;;;;2618994;52;20982;-66
2023/10/12 03:27:11;;;;;;;5.03;2.35;;;21.70;50.20;;;;;;2357889;53;21021;-69
2023/10/12 03:29:43;;;;;;;4.22;2.15;;;21.80;50.20;;;;;;2581708;52;21104;-66
2023/10/12 03:32:20;;;;;;;4.45;1.92;;;21.80;50.10;;;;;;2363133;53;20959;-65
2023/10/12 03:34:56;;;;;;;6.22;2.20;;;21.80;50.10;;;;;;2369969;53;20966;-64
2023/10/12 03:37:44;;;;;;;4.20;2.10;;;21.90;50.10;;;;;;2620158;52;20990;-65
2023/10/12 03:40:50;;;;;;;8.23;2.78;;;21.90;50.00;;;;;;2370085;53;21368;-65
2023/10/12 03:43:26;;;;;;;5.70;2.20;;;21.90;50.00;;;;;;2586078;52;20966;-67
2023/10/12 03:46:17;;;;;;;4.80;2.20;;;22.00;49.90;;;;;;2340369;53;20899;-65
2023/10/12 03:49:04;;;;;;;;;;;22.00;49.90;;;;;;2589828;52;21562;-65
2023/10/12 03:51:39;;;;;;;5.95;1.98;;;22.10;49.90;;;;;;2340708;53;20141;-69
2023/10/12 03:54:45;;;;;;;5.00;1.95;;;22.10;49.70;;;;;;2341015;53;20994;-69
2023/10/12 03:57:20;;;;;;;5.50;2.10;;;22.10;49.80;;;;;;2340425;53;21030;-65
2023/10/12 04:03:18;;;;;;;4.50;2.10;;;22.10;49.80;;;;;;2340649;53;20932;-67
2023/10/12 04:05:54;;;;;;;4.05;2.10;;;22.10;49.60;;;;;;2586449;52;21374;-67
2023/10/12 04:11:47;;;;;;;5.62;2.03;;;22.10;49.60;;;;;;2368219;53;21510;-66
2023/10/12 04:14:43;;;;;;;5.55;2.12;;;22.10;49.60;;;;;;2368109;53;21472;-66
2023/10/12 04:25:59;;;;;;;4.80;2.15;;;22.20;49.50;;;;;;2620091;52;21006;-67
2023/10/12 04:28:32;;;;;;;6.20;2.40;;;22.20;49.50;;;;;;2368013;53;21712;-65
2023/10/12 04:34:07;;;;;;;6.75;2.20;;;22.20;49.50;;;;;;2368328;53;21439;-65
2023/10/12 04:36:44;;;;;;;5.32;2.30;;;22.20;50.10;;;;;;2368001;53;20942;-67
2023/10/12 04:39:26;;;;;;;5.75;2.40;;;22.30;49.50;;;;;;2367303;53;21521;-65
2023/10/12 04:42:04;;;;;;;4.95;2.10;;;22.20;49.40;;;;;;2620175;52;21014;-66
2023/10/12 04:47:15;;;;;;;5.68;2.33;;;22.30;49.40;;;;;;2367137;53;20942;-65
2023/10/12 04:52:32;;;;;;;4.47;2.00;;;22.30;49.30;;;;;;2368562;53;20969;-65
2023/10/12 04:55:06;;;;;;;5.40;2.33;;;22.30;49.30;;;;;;2367778;53;21949;-68
2023/10/12 04:57:34;;;;;;;5.12;2.60;;;22.30;49.20;;;;;;2620148;52;21190;-65
2023/10/12 05:03:36;;;;;;;5.15;2.25;;;22.30;49.10;;;;;;2368731;53;20891;-65
2023/10/12 05:06:04;;;;;;;4.20;2.15;;;22.30;49.00;;;;;;2620190;52;21473;-66
2023/10/12 05:08:33;;;;;;;3.80;1.95;;;22.40;49.00;;;;;;2620663;52;20983;-65
2023/10/12 05:10:59;;;;;;;4.72;2.37;;;22.30;48.90;;;;;;2368517;53;21001;-68
2023/10/12 05:13:28;;;;;;;5.60;2.28;;;22.30;48.80;;;;;;2349370;53;20994;-65
2023/10/12 05:15:55;;;;;;;5.10;2.30;;;22.30;48.80;;;;;;2368446;53;20994;-65
2023/10/12 05:18:23;;;;;;;5.75;2.30;;;22.30;48.80;;;;;;2620308;52;21759;-66
2023/10/12 05:20:52;;;;;;;4.28;2.35;;;22.30;48.70;;;;;;2370258;53;20958;-66
2023/10/12 05:23:18;;;;;;;4.53;2.40;;;22.30;48.70;;;;;;2350081;53;21940;-64
2023/10/12 05:25:53;;;;;;;5.68;3.15;;;22.30;48.70;;;;;;2367643;53;20904;-65
2023/10/12 05:28:31;;;;;;;4.72;2.37;;;22.30;48.70;;;;;;2586555;52;20921;-67
2023/10/12 05:31:09;;;;;;;4.53;2.30;;;22.30;48.60;;;;;;2341436;53;20991;-65
2023/10/12 05:33:43;;;;;;;5.87;2.80;;;22.30;48.60;;;;;;2341657;53;20905;-65
2023/10/12 05:36:13;;;;;;;4.30;2.17;;;22.30;48.50;;;;;;2341282;53;21012;-65
2023/10/12 05:38:49;;;;;;;4.00;2.28;;;22.30;48.60;;;;;;2340717;53;21449;-64
2023/10/12 05:41:22;;;;;;;4.40;2.22;;;22.30;48.50;;;;;;2340290;53;21032;-66
2023/10/12 05:43:48;;;;;;;4.87;2.45;;;22.30;48.50;;;;;;2355414;53;21289;-69
2023/10/12 05:46:15;;;;;;;5.50;2.50;;;22.30;48.40;;;;;;2344448;53;22028;-65
2023/10/12 05:48:46;;;;;;;6.22;2.60;;;22.30;48.40;;;;;;2587439;52;21533;-68
2023/10/12 05:51:14;;;;;;;4.72;2.47;;;22.30;48.40;;;;;;2585917;52;21137;-65
2023/10/12 05:53:41;;;;;;;6.07;3.10;;;22.30;48.40;;;;;;2586556;52;20970;-68
2023/10/12 05:56:07;;;;;;;6.25;2.80;;;22.30;48.40;;;;;;2340870;53;20946;-65
2023/10/12 05:58:40;;;;;;;7.57;2.70;;;22.30;48.30;;;;;;2340550;53;20958;-65
2023/10/12 06:01:15;;;;;;;5.70;2.80;;;22.20;48.20;;;;;;2340707;53;21472;-66
2023/10/12 06:03:46;;;;;;;5.22;2.28;;;22.30;48.30;;;;;;2341100;53;21776;-65
2023/10/12 06:06:13;;;;;;;6.32;2.40;;;22.20;48.10;;;;;;2586687;52;20983;-65
2023/10/12 06:08:42;;;;;;;5.05;2.28;;;22.30;48.20;;;;;;2586475;52;20982;-69
2023/10/12 06:11:09;;;;;;;5.53;2.90;;;22.30;48.20;;;;;;2586794;52;21384;-67
2023/10/12 06:13:42;;;;;;;5.95;2.78;;;22.30;48.20;;;;;;2585873;52;21439;-69
2023/10/12 06:16:14;;;;;;;6.65;2.90;;;22.20;48.10;;;;;;2341500;53;20918;-65
2023/10/12 06:18:44;;;;;;;4.40;2.47;;;22.20;48.10;;;;;;2339948;53;20930;-65
2023/10/12 06:21:19;;;;;;;4.87;2.58;;;22.20;48.00;;;;;;2586524;52;20982;-66
2023/10/12 06:23:50;;;;;;;7.05;2.60;;;22.30;48.20;;;;;;2340670;53;20969;-65
2023/10/12 06:26:28;;;;;;;5.75;2.95;;;22.30;48.20;;;;;;2339614;53;21280;-65
2023/10/12 06:28:58;;;;;;;5.20;3.00;;;22.30;48.10;;;;;;2340895;53;21000;-66
2023/10/12 06:31:31;;;;;;;5.53;2.58;;;22.30;48.20;;;;;;2339758;53;20941;-65
2023/10/12 06:33:59;;;;;;;4.72;2.42;;;22.30;48.10;;;;;;2358064;53;21026;-68
2023/10/12 06:36:37;;;;;;;6.57;2.75;;;22.30;48.10;;;;;;2618344;52;20967;-65
2023/10/12 06:43:57;;;;;;;5.37;3.00;;;22.30;48.20;;;;;;2335621;54;20968;-65
2023/10/12 06:46:27;;;;;;;4.05;2.15;;;22.30;48.10;;;;;;2335575;54;20979;-65
2023/10/12 06:49:00;;;;;;;4.57;2.30;;;22.30;48.10;;;;;;2341441;53;20958;-65
2023/10/12 06:51:32;;;;;;;5.15;2.08;;;22.40;48.20;;;;;;2585858;52;20893;-65
2023/10/12 06:54:18;;;;;;;5.47;2.35;;;22.40;48.10;;;;;;2587227;52;21045;-65
2023/10/12 06:56:50;;;;;;;8.27;2.37;;;22.40;48.20;;;;;;2361176;53;21403;-65
2023/10/12 06:59:28;;;;;;;6.05;3.10;;;22.40;48.30;;;;;;2620624;52;21757;-66
2023/10/12 07:02:10;;;;;;;5.45;2.40;;;22.40;48.30;;;;;;2337011;53;20937;-65
2023/10/12 07:04:38;;;;;;;;;;;22.50;48.40;;;;;;2343978;53;20945;-65
2023/10/12 07:07:10;;;;;;;5.95;2.35;;;22.50;48.30;;;;;;2586894;52;20129;-65
2023/10/12 07:09:46;;;;;;;4.12;2.00;;;22.60;48.40;;;;;;2341710;53;20956;-65
2023/10/12 07:12:14;;;;;;;4.85;2.53;;;22.60;48.40;;;;;;2340436;53;21771;-67
2023/10/12 07:14:47;;;;;;;4.78;2.50;;;22.70;48.50;;;;;;2586192;52;20921;-65
2023/10/12 07:17:15;;;;;;;5.47;2.55;;;22.70;48.50;;;;;;2345108;53;20995;-65
2023/10/12 07:19:46;;;;;;;5.45;2.60;;;22.70;48.50;;;;;;2339389;53;20948;-68
2023/10/12 07:22:18;;;;;;;6.55;2.30;;;22.80;48.60;;;;;;2586398;52;20968;-65
2023/10/12 07:24:45;;;;;;;6.97;2.62;;;22.90;48.60;;;;;;2586609;52;21426;-65
2023/10/12 07:27:15;;;;;;;5.65;2.30;;;22.90;48.60;;;;;;2586761;52;20929;-65
2023/10/12 07:30:08;;;;;;;5.37;2.50;;;22.90;48.60;;;;;;2585819;52;21705;-66
2023/10/12 07:35:28;;;;;;;5.80;2.60;;;23.10;48.60;;;;;;2586381;52;21033;-65
2023/10/12 07:37:58;;;;;;;6.47;3.10;;;23.20;48.70;;;;;;2341146;54;20929;-65
2023/10/12 07:40:25;;;;;;;5.05;2.62;;;23.30;48.60;;;;;;2368391;53;20947;-66
2023/10/12 07:42:52;;;;;;;4.22;2.60;;;23.40;48.60;;;;;;2621006;52;21459;-66
2023/10/12 07:45:19;;;;;;;5.12;2.60;;;23.50;48.50;;;;;;2620787;52;20994;-65
2023/10/12 07:47:58;;;;;;;6.40;2.80;;;23.50;48.50;;;;;;2620319;52;20997;-65
2023/10/12 07:50:25;;;;;;;4.75;2.70;;;23.60;48.40;;;;;;2340067;53;20996;-65
2023/10/12 07:53:04;;;;;;;5.20;2.58;;;23.70;48.40;;;;;;2586457;52;20928;-67
2023/10/12 07:55:31;;;;;;;5.43;2.55;;;23.80;48.40;;;;;;2340521;53;20985;-66
2023/10/12 07:57:59;;;;;;;4.85;2.62;;;23.90;48.40;;;;;;2341511;53;20988;-66
2023/10/12 08:00:34;;;;;;;5.47;2.55;;;24.00;48.30;;;;;;2362346;53;20941;-68
2023/10/12 08:03:17;;;;;;;4.75;2.80;;;24.10;48.30;;;;;;2620468;52;21496;-70
2023/10/12 08:05:56;;;;;;;5.53;2.33;;;24.10;48.20;;;;;;2368119;53;20922;-65
2023/10/12 08:08:37;;;;;;;6.12;2.67;;;24.20;48.20;;;;;;2620265;52;20918;-64
2023/10/12 08:11:10;;;;;;;6.57;2.80;;;24.30;48.10;;;;;;2368559;53;20926;-66
2023/10/12 08:13:48;;;;;;;5.03;2.45;;;24.40;48.00;;;;;;2367552;53;21006;-67
2023/10/12 08:16:15;;;;;;;5.43;2.60;;;24.50;48.00;;;;;;2367085;53;21762;-66
2023/10/12 08:24:40;;;;;;;3.87;2.25;;;24.60;47.70;;;;;;2367452;53;20934;-68
2023/10/12 08:27:06;;;;;;;5.93;2.25;;;24.80;47.60;;;;;;2368293;53;20950;-65
2023/10/12 08:32:57;;;;;;;4.35;2.33;;;24.90;47.50;;;;;;2367844;53;21054;-65
2023/10/12 08:35:39;;;;;;;8.60;2.60;;;25.00;47.50;;;;;;2367646;53;20998;-69
2023/10/12 08:38:15;;;;;;;4.53;2.37;;;25.10;47.50;;;;;;2620450;52;21669;-65
2023/10/12 08:41:06;;;;;;;4.22;2.35;;;25.10;47.30;;;;;;2620104;52;20926;-66
2023/10/12 08:43:43;;;;;;;4.10;2.17;;;25.20;47.30;;;;;;2367033;53;20922;-66
2023/10/12 08:46:10;;;;;;;4.60;2.20;;;25.30;47.30;;;;;;2368502;53;20974;-69
2023/10/12 08:48:43;;;;;;;4.37;2.20;;;25.30;47.20;;;;;;2368348;53;21407;-66
2023/10/12 08:51:23;;;;;;;4.68;2.22;;;25.40;47.30;;;;;;2368975;53;21459;-65
2023/10/12 08:53:50;;;;;;;5.05;2.40;;;25.40;46.90;;;;;;2366718;53;21425;-69
2023/10/12 08:56:18;;;;;;;4.93;2.42;;;25.50;47.10;;;;;;2364715;53;21010;-65
2023/10/12 08:58:50;;;;;;;4.97;2.85;;;25.50;47.00;;;;;;2620440;52;20970;-65
2023/10/12 09:01:31;;;;;;;4.30;2.40;;;25.60;47.10;;;;;;2367711;53;21372;-65
2023/10/12 09:04:11;;;;;;;4.60;2.70;;;25.70;47.20;;;;;;2369785;53;20927;-67
2023/10/12 09:09:48;;;;;;;9.52;2.87;;;25.80;47.20;;;;;;2367826;53;20941;-66
2023/10/12 09:12:19;;;;;;;4.55;2.40;;;25.90;47.10;;;;;;2620946;52;20978;-65
2023/10/12 09:14:54;;;;;;;10.60;3.05;;;26.00;47.00;;;;;;2616509;52;21804;-66
2023/10/12 09:17:27;;;;;;;4.07;2.30;;;26.00;47.40;;;;;;2613337;52;21001;-66
2023/10/12 09:20:41;;;;;;;6.28;2.40;;;26.10;46.60;;;;;;2368304;53;25259;-68
2023/10/12 09:23:14;;;;;;;5.50;2.37;;;26.20;46.80;;;;;;2621312;52;20883;-68
2023/10/12 09:29:31;;;;;;;3.92;2.45;;;26.40;46.80;;;;;;2619850;52;21017;-67
2023/10/12 09:34:52;;;;;;;5.30;2.50;;;26.60;46.40;;;;;;2620555;52;21364;-66
2023/10/12 09:37:18;;;;;;;4.57;2.12;;;26.70;46.10;;;;;;2368245;53;21050;-67
2023/10/12 09:39:45;;;;;;;4.57;2.47;;;26.70;45.90;;;;;;2370974;53;20990;-68
2023/10/12 09:42:37;;;;;;;4.55;2.50;;;26.80;45.90;;;;;;2576927;53;21101;-65
2023/10/12 09:45:10;;;;;;;4.20;2.37;;;26.90;45.70;;;;;;2378671;53;21016;-66
2023/10/12 09:47:50;;;;;;;4.80;2.40;;;27.00;45.70;;;;;;2612396;52;21064;-65
2023/10/12 09:50:16;;;;;;;5.00;2.50;;;27.10;45.50;;;;;;2367496;53;20938;-67
2023/10/12 09:52:46;;;;;;;5.97;2.30;;;27.20;45.60;;;;;;2619853;52;20914;-69
2023/10/12 09:55:23;;;;;;;4.25;2.53;;;27.20;45.10;;;;;;2368364;53;20955;-65
2023/10/12 09:57:51;;;;;;;7.47;2.35;;;27.30;45.00;;;;;;2367313;53;22208;-66
2023/10/12 10:00:55;;;;;;;5.25;2.37;;;27.30;44.90;;;;;;2367955;53;21715;-67
2023/10/12 10:03:35;;;;;;;3.80;1.92;;;27.30;44.70;;;;;;2367706;53;20985;-66
2023/10/12 10:06:10;;;;;;;4.62;2.42;;;27.40;44.70;;;;;;2621346;52;21301;-66
2023/10/12 10:08:52;;;;;;;7.15;2.67;;;27.40;44.40;;;;;;2620079;52;21740;-66
2023/10/12 10:11:26;;;;;;;5.22;2.83;;;27.40;44.40;;;;;;2619958;52;20989;-66
2023/10/12 10:13:53;;;;;;;6.75;2.40;;;27.40;44.30;;;;;;2610510;52;20985;-66
2023/10/12 10:16:20;;;;;;;4.32;2.10;;;27.40;44.20;;;;;;2367424;53;20953;-65
2023/10/12 10:18:56;;;;;;;4.97;2.58;;;27.50;44.30;;;;;;2582149;53;20977;-65
2023/10/12 10:21:30;;;;;;;4.95;2.37;;;27.50;44.20;;;;;;2616620;52;20934;-64
2023/10/12 10:23:57;;;;;;;4.65;2.20;;;27.50;44.20;;;;;;2368507;53;21010;-67
2023/10/12 10:26:30;;;;;;;6.78;2.47;;;27.50;44.10;;;;;;2366520;53;21006;-69
2023/10/12 10:29:07;;;;;;;5.30;2.53;;;27.50;44.00;;;;;;2367605;53;21384;-66
2023/10/12 10:31:43;;;;;;;5.10;2.47;;;27.60;43.90;;;;;;2367014;53;21427;-68
2023/10/12 10:34:14;;;;;;;5.28;2.50;;;27.60;43.70;;;;;;2369392;53;20948;-66
2023/10/12 10:36:44;;;;;;;4.50;2.17;;;27.60;43.60;;;;;;2369285;53;20953;-66
2023/10/12 10:39:28;;;;;;;5.18;2.65;;;27.60;43.60;;;;;;2613938;52;20934;-65
2023/10/12 10:42:00;;;;;;;4.62;2.50;;;27.60;43.50;;;;;;2366424;53;21008;-65
2023/10/12 10:44:27;;;;;;;4.70;2.28;;;27.60;43.40;;;;;;2361210;53;20954;-65
2023/10/12 10:46:57;;;;;;;4.53;2.08;;;27.70;43.50;;;;;;2620202;52;21257;-65
2023/10/12 10:49:30;;;;;;;4.18;2.40;;;27.70;43.40;;;;;;2368390;53;20934;-68
2023/10/12 10:52:13;;;;;;;3.67;2.17;;;27.70;43.40;;;;;;2368267;53;21853;-65
2023/10/12 10:54:56;;;;;;;4.72;2.42;;;27.80;43.50;;;;;;2620234;52;20962;-66
2023/10/12 10:57:31;;;;;;;4.68;2.35;;;27.70;43.40;;;;;;2368907;53;20942;-69
2023/10/12 10:59:58;;;;;;;7.05;2.20;;;27.80;43.40;;;;;;2366662;53;20986;-66
2023/10/12 11:02:27;;;;;;;8.63;2.25;;;27.80;43.40;;;;;;2619763;52;20989;-67
2023/10/12 11:04:57;;;;;;;4.45;2.20;;;27.90;43.30;;;;;;2367294;53;21006;-67
2023/10/12 11:07:24;;;;;;;3.67;1.77;;;27.90;43.50;;;;;;2620020;52;21006;-66
2023/10/12 11:12:39;;;;;;;4.37;1.95;;;28.00;43.60;;;;;;2367507;53;20985;-65
2023/10/12 11:15:19;;;;;;;4.65;2.20;;;28.00;43.60;;;;;;2620935;52;20914;-70
2023/10/12 11:18:00;;;;;;;6.32;2.08;;;28.10;43.60;;;;;;2371912;53;21784;-66
2023/10/12 11:20:35;;;;;;;4.22;2.12;;;28.10;43.40;;;;;;2360381;53;21876;-70
2023/10/12 11:23:06;;;;;;;4.93;2.30;;;28.20;43.10;;;;;;2619542;52;20902;-65
2023/10/12 11:25:39;;;;;;;5.57;2.20;;;28.20;43.20;;;;;;2620053;52;20994;-65
2023/10/12 11:28:19;;;;;;;3.25;1.75;;;28.30;43.20;;;;;;2367732;53;20990;-66
2023/10/12 11:30:46;;;;;;;6.05;2.40;;;28.30;42.90;;;;;;2367595;53;20955;-66
2023/10/12 11:33:12;;;;;;;5.55;2.20;;;28.40;43.10;;;;;;2370755;53;21005;-66
2023/10/12 11:35:43;;;;;;;4.70;2.42;;;28.40;42.80;;;;;;2609509;52;21665;-66
2023/10/12 11:38:23;;;;;;;4.53;2.10;;;28.40;42.80;;;;;;2620328;52;21378;-68
2023/10/12 11:40:55;;;;;;;5.37;2.45;;;28.50;42.70;;;;;;2367842;53;21376;-66
2023/10/12 11:43:26;;;;;;;6.95;1.90;;;28.60;42.80;;;;;;2366985;53;21093;-68
2023/10/12 11:46:03;;;;;;;4.03;1.83;;;28.60;42.90;;;;;;2619320;52;21567;-66
2023/10/12 11:48:30;;;;;;;6.85;2.10;;;28.60;42.70;;;;;;2367259;53;21314;-66
2023/10/12 11:50:57;;;;;;;4.25;2.10;;;28.70;42.70;;;;;;2367656;53;20958;-67
2023/10/12 11:53:28;;;;;;;4.35;1.95;;;28.70;42.60;;;;;;2367478;53;21474;-66
2023/10/12 11:56:13;;;;;;;4.05;2.20;;;28.70;42.50;;;;;;2618449;52;20946;-65
2023/10/12 11:58:51;;;;;;;5.90;2.00;;;28.80;42.30;;;;;;2614656;52;20985;-66
2023/10/12 12:01:18;;;;;;;4.82;2.10;;;28.90;42.70;;;;;;2365840;53;21991;-65
2023/10/12 12:03:45;;;;;;;6.90;1.92;;;28.90;42.40;;;;;;2367328;53;20918;-67
2023/10/12 12:06:18;;;;;;;3.80;2.10;;;28.90;42.40;;;;;;2368155;53;21647;-66
2023/10/12 12:08:51;;;;;;;4.32;1.98;;;29.00;42.30;;;;;;2367826;53;21170;-69
2023/10/12 12:11:21;;;;;;;3.87;2.17;;;29.00;42.20;;;;;;2620229;52;20985;-66
2023/10/12 12:13:47;;;;;;;4.32;2.08;;;29.10;42.20;;;;;;2367939;53;21269;-68
2023/10/12 12:16:21;;;;;;;4.10;2.05;;;29.10;42.00;;;;;;2368066;53;21673;-69
2023/10/12 12:18:53;;;;;;;5.40;2.08;;;29.10;41.90;;;;;;2368501;53;20918;-66
2023/10/12 12:21:29;;;;;;;3.45;1.55;;;29.10;41.60;;;;;;2620924;52;20894;-69
2023/10/12 12:24:24;;;;;;;3.75;1.90;;;29.10;41.60;;;;;;2367604;53;21009;-66
2023/10/12 12:26:54;;;;;;;4.53;1.80;;;29.10;41.40;;;;;;2370853;53;21297;-66
2023/10/12 12:29:26;;;;;;;3.60;1.87;;;29.10;41.50;;;;;;2620515;52;21423;-67
2023/10/12 12:31:57;;;;;;;4.15;1.67;;;29.10;41.20;;;;;;2365909;53;20934;-65
2023/10/12 12:34:41;;;;;;;4.28;1.77;;;29.10;41.30;;;;;;2618818;52;21006;-66
2023/10/12 12:37:08;;;;;;;3.62;1.60;;;29.10;41.40;;;;;;2619720;52;21752;-66
2023/10/12 12:39:34;;;;;;;4.45;1.95;;;29.10;41.20;;;;;;2367086;53;20994;-67
2023/10/12 12:42:01;;;;;;;5.55;1.98;;;29.10;41.00;;;;;;2620351;52;21741;-66
2023/10/12 12:44:28;;;;;;;2.90;1.40;;;29.00;40.90;;;;;;2619277;52;21006;-66
2023/10/12 12:46:56;;;;;;;5.25;1.80;;;29.00;41.00;;;;;;2369092;53;20921;-66
2023/10/12 12:49:26;;;;;;;4.43;2.10;;;29.00;41.00;;;;;;2367940;53;21057;-67
2023/10/12 12:51:52;;;;;;;3.70;1.90;;;28.90;40.60;;;;;;2364555;53;20975;-68
2023/10/12 12:54:19;;;;;;;5.20;1.70;;;28.90;40.60;;;;;;2367020;53;20954;-66
2023/10/12 12:56:46;;;;;;;4.37;1.90;;;28.90;40.60;;;;;;2367689;53;20942;-66
2023/10/12 12:59:12;;;;;;;5.43;1.80;;;28.90;40.40;;;;;;2620426;52;20975;-66
2023/10/12 13:01:41;;;;;;;3.53;1.52;;;28.80;40.40;;;;;;2618992;52;20934;-66
2023/10/12 13:04:09;;;;;;;2.78;1.58;;;28.80;40.50;;;;;;2367967;53;20918;-66
2023/10/12 13:06:35;;;;;;;3.55;1.50;;;28.80;40.50;;;;;;2366490;53;20949;-69
2023/10/12 13:09:02;;;;;;;3.42;1.62;;;28.80;40.50;;;;;;2363331;53;20933;-66
2023/10/12 13:11:29;;;;;;;4.35;1.85;;;28.80;40.70;;;;;;2366111;53;20937;-66
2023/10/12 13:13:55;;;;;;;3.72;1.80;;;28.80;40.70;;;;;;2620659;52;20978;-67
2023/10/12 13:16:22;;;;;;;4.62;2.03;;;28.80;40.70;;;;;;2371008;53;21250;-66
2023/10/12 13:18:48;;;;;;;6.37;2.00;;;28.90;40.70;;;;;;2360224;53;21558;-66
2023/10/12 13:21:15;;;;;;;3.90;1.90;;;28.90;40.70;;;;;;2605668;52;21168;-68
2023/10/12 13:23:43;;;;;;;5.00;1.73;;;28.90;40.70;;;;;;2339966;53;20920;-66
2023/10/12 13:26:12;;;;;;;4.10;2.03;;;28.80;40.60;;;;;;2340816;53;20969;-66
2023/10/12 13:28:41;;;;;;;7.40;1.95;;;28.90;40.80;;;;;;2357617;52;21460;-67
2023/10/12 13:31:11;;;;;;;2.90;1.55;;;28.90;40.70;;;;;;2348009;53;20934;-66
2023/10/12 13:33:41;;;;;;;3.50;1.70;;;28.90;40.80;;;;;;2361109;53;20910;-66
2023/10/12 13:36:08;;;;;;;4.07;1.75;;;28.90;41.00;;;;;;2593492;52;20977;-66
2023/10/12 13:38:37;;;;;;;4.43;1.67;;;28.90;41.00;;;;;;2339968;53;20913;-69
2023/10/12 13:41:05;;;;;;;5.57;1.80;;;29.00;41.00;;;;;;2340577;53;21279;-67
2023/10/12 13:43:31;;;;;;;3.03;1.65;;;29.00;40.90;;;;;;2340205;53;21071;-66
2023/10/12 13:46:06;;;;;;;4.45;1.75;;;29.00;40.70;;;;;;2340596;53;20925;-65
2023/10/12 13:48:37;;;;;;;5.43;1.87;;;29.00;40.70;;;;;;2586073;52;21055;-67
2023/10/12 13:51:24;;;;;;;3.37;1.77;;;29.00;40.40;;;;;;2586630;52;21004;-66
2023/10/12 13:53:50;;;;;;;4.10;1.87;;;29.00;40.40;;;;;;2340061;53;21000;-66
2023/10/12 13:56:17;;;;;;;3.62;1.80;;;29.10;40.70;;;;;;2341009;53;20984;-68
2023/10/12 13:58:46;;;;;;;5.45;1.65;;;29.10;40.70;;;;;;2338599;54;20949;-66
2023/10/12 14:01:15;;;;;;;3.83;1.80;;;29.10;40.70;;;;;;2344491;54;21728;-68
2023/10/12 14:03:45;;;;;;;5.32;1.73;;;29.10;40.60;;;;;;2367239;53;21466;-66
2023/10/12 14:06:12;;;;;;;3.87;1.75;;;29.10;40.50;;;;;;2620639;52;20942;-66
2023/10/12 14:08:42;;;;;;;4.57;1.80;;;29.10;40.40;;;;;;2619704;52;21812;-66
2023/10/12 14:11:18;;;;;;;3.53;1.58;;;29.20;40.50;;;;;;2368341;53;20954;-70
2023/10/12 14:13:45;;;;;;;4.25;1.55;;;29.20;40.00;;;;;;2361268;53;20911;-66
2023/10/12 14:16:12;;;;;;;3.70;1.70;;;29.30;40.30;;;;;;2354707;53;21002;-66
2023/10/12 14:18:39;;;;;;;3.53;1.58;;;29.30;40.30;;;;;;2367901;53;20937;-66
2023/10/12 14:21:13;;;;;;;4.53;1.98;;;29.30;40.20;;;;;;2617385;52;20926;-67
2023/10/12 14:23:45;;;;;;;7.75;2.20;;;29.30;40.20;;;;;;2366707;53;20954;-67
2023/10/12 14:26:35;;;;;;;4.12;1.90;;;29.30;40.00;;;;;;2350532;53;21094;-66
2023/10/12 14:29:11;;;;;;;3.87;1.70;;;29.40;39.60;;;;;;2619717;52;20999;-64
2023/10/12 14:31:43;;;;;;;3.67;1.85;;;29.40;40.00;;;;;;2347210;53;21081;-68
2023/10/12 14:34:13;;;;;;;;;;;29.40;39.90;;;;;;2372172;54;20985;-66
2023/10/12 14:36:40;;;;;;;4.07;1.90;;;29.50;39.90;;;;;;2367323;53;20105;-65